sensor_id;sensor_type;location;lat;lon;timestamp;temperature;humidity
46634;DHT22;32362;49.986;8.026;2023-04-16T00:10:37;9.70;99.90
46634;DHT22;32362;49.986;8.026;2023-04-16T00:37:17;9.50;99.90
46634;DHT22;32362;49.986;8.026;2023-04-16T01:03:58;9.50;99.90
46634;DHT22;32362;49.986;8.026;2023-04-16T01:30:40;9.50;99.90
46634;DHT22;32362;49.986;8.026;2023-04-16T01:57:47;9.60;99.90
46634;DHT22;32362;49.986;8.026;2023-04-16T02:24:28;9.30;99.90
46634;DHT22;32362;49.986;8.026;2023-04-16T02:51:11;9.30;99.90
46634;DHT22;32362;49.986;8.026;2023-04-16T03:17:55;9.00;99.90
46634;DHT22;32362;49.986;8.026;2023-04-16T03:44:40;9.30;99.90
46634;DHT22;32362;49.986;8.026;2023-04-16T04:11:22;9.20;99.90
46634;DHT22;32362;49.986;8.026;2023-04-16T04:38:03;9.30;99.90
46634;DHT22;32362;49.986;8.026;2023-04-16T05:04:44;9.40;99.90
46634;DHT22;32362;49.986;8.026;2023-04-16T05:31:25;9.40;99.90
46634;DHT22;32362;49.986;8.026;2023-04-16T05:58:06;9.40;99.90
46634;DHT22;32362;49.986;8.026;2023-04-16T06:24:46;9.40;99.90
46634;DHT22;32362;49.986;8.026;2023-04-16T06:51:27;10.00;99.90
46634;DHT22;32362;49.986;8.026;2023-04-16T07:18:10;9.70;99.90
46634;DHT22;32362;49.986;8.026;2023-04-16T07:44:54;9.90;99.90
46634;DHT22;32362;49.986;8.026;2023-04-16T08:11:34;10.20;99.90
46634;DHT22;32362;49.986;8.026;2023-04-16T08:38:15;10.30;99.90
46634;DHT22;32362;49.986;8.026;2023-04-16T09:04:56;10.80;99.90
46634;DHT22;32362;49.986;8.026;2023-04-16T09:31:38;10.90;99.90
46634;DHT22;32362;49.986;8.026;2023-04-16T09:58:36;11.50;99.90
46634;DHT22;32362;49.986;8.026;2023-04-16T10:25:20;13.70;99.90
46634;DHT22;32362;49.986;8.026;2023-04-16T11:18:48;21.60;92.10
46634;DHT22;32362;49.986;8.026;2023-04-16T11:45:29;22.50;91.60
46634;DHT22;32362;49.986;8.026;2023-04-16T12:12:26;22.80;90.30
46634;DHT22;32362;49.986;8.026;2023-04-16T12:39:07;23.00;87.90
46634;DHT22;32362;49.986;8.026;2023-04-16T13:05:49;22.80;96.50
46634;DHT22;32362;49.986;8.026;2023-04-16T13:32:45;23.20;99.90
46634;DHT22;32362;49.986;8.026;2023-04-16T15:19:29;23.40;99.90
46634;DHT22;32362;49.986;8.026;2023-04-16T15:46:09;23.40;95.20
46634;DHT22;32362;49.986;8.026;2023-04-16T16:12:50;22.90;73.50
46634;DHT22;32362;49.986;8.026;2023-04-16T16:39:31;22.90;74.00
46634;DHT22;32362;49.986;8.026;2023-04-16T17:06:27;23.20;73.00
46634;DHT22;32362;49.986;8.026;2023-04-16T17:33:07;21.90;84.60
46634;DHT22;32362;49.986;8.026;2023-04-16T18:00:06;22.20;73.60
46634;DHT22;32362;49.986;8.026;2023-04-16T18:26:53;22.20;78.90
46634;DHT22;32362;49.986;8.026;2023-04-16T18:53:35;22.40;83.30
46634;DHT22;32362;49.986;8.026;2023-04-16T19:20:16;22.50;83.20
46634;DHT22;32362;49.986;8.026;2023-04-16T19:49:02;21.50;72.40
46634;DHT22;32362;49.986;8.026;2023-04-16T20:15:43;13.70;79.60
46634;DHT22;32362;49.986;8.026;2023-04-16T20:42:24;12.00;84.80
46634;DHT22;32362;49.986;8.026;2023-04-16T21:09:08;12.00;89.30
46634;DHT22;32362;49.986;8.026;2023-04-16T21:35:53;12.20;89.50
46634;DHT22;32362;49.986;8.026;2023-04-16T22:02:33;12.00;90.00
46634;DHT22;32362;49.986;8.026;2023-04-16T22:29:14;12.10;88.70
46634;DHT22;32362;49.986;8.026;2023-04-16T22:55:55;11.80;89.10
46634;DHT22;32362;49.986;8.026;2023-04-16T23:22:36;11.20;91.80
46634;DHT22;32362;49.986;8.026;2023-04-16T23:49:16;11.10;92.40
